MSC Suez — HPMS — position and weather

sailwx.info

Track history (hours):
 
Tides and Currents Weather Stations Pressure Air Temp Water Temp Dewpoint Dewpoint Depression Visibility Wind Speed Wind Dir Waves Ship Positions

MSC Suez

Last reported at 2017-Oct-17 20:29 UTC. Time now 2017-Oct-17 20:51 UTC.
Position N 51°30' W 002°43'.

Length 237 m; draft 8 m.

Type: Ship. MMSI: 355289000.

Date/timePositionNaut miles runAvg speedWind from/ knotsBaromVisibWave heightAir tempDewpointWater temp
2017-Oct-17 20:29N 51°30' W 002°43'0 0.0
2017-Oct-17 19:59N 51°30' W 002°43'0 0.0
2017-Oct-17 19:29N 51°30' W 002°43'0 0.0
2017-Oct-17 18:59N 51°30' W 002°43'0 0.0
2017-Oct-17 18:29N 51°30' W 002°43'0 0.0
2017-Oct-17 17:59N 51°30' W 002°43'0 0.0
2017-Oct-17 17:29N 51°30' W 002°43'0 0.0
2017-Oct-17 16:59N 51°30' W 002°43'0 0.0
2017-Oct-17 16:29N 51°30' W 002°43'0 0.0
2017-Oct-17 15:59N 51°30' W 002°43'0 0.0
2017-Oct-17 15:29N 51°30' W 002°43'0 0.0
2017-Oct-17 14:59N 51°30' W 002°43'0 0.0
2017-Oct-17 14:29N 51°30' W 002°43'0 0.0
2017-Oct-17 13:59N 51°30' W 002°43'0 0.0
2017-Oct-17 13:29N 51°30' W 002°43'0 0.0
2017-Oct-17 12:59N 51°30' W 002°43'0 0.0
2017-Oct-17 12:29N 51°30' W 002°43'0 0.0
2017-Oct-17 11:59N 51°30' W 002°43'0 0.0
2017-Oct-17 11:29N 51°30' W 002°43'0 0.0
2017-Oct-17 10:59N 51°30' W 002°43'0 0.0
2017-Oct-17 10:29N 51°30' W 002°43'0 0.0
2017-Oct-17 09:59N 51°30' W 002°43'0 0.0
2017-Oct-17 09:29N 51°30' W 002°43'0 0.0
2017-Oct-17 08:59N 51°30' W 002°43'0 0.0
2017-Oct-17 08:29N 51°30' W 002°43'0 0.0
2017-Oct-17 07:59N 51°30' W 002°43'0 0.0
2017-Oct-17 07:29N 51°30' W 002°43'0 0.0
2017-Oct-17 06:59N 51°30' W 002°43'0 0.0
2017-Oct-17 06:29N 51°30' W 002°43'0 0.0
2017-Oct-17 05:59N 51°30' W 002°43'0 0.0
2017-Oct-17 05:29N 51°30' W 002°43'0 0.0
2017-Oct-17 04:59N 51°30' W 002°43'0 0.0
2017-Oct-17 04:29N 51°30' W 002°43'0 0.0
2017-Oct-17 03:59N 51°30' W 002°43'0 0.0
2017-Oct-17 03:14N 51°30' W 002°43'0 0.0
2017-Oct-17 02:59N 51°30' W 002°43'0 0.0
2017-Oct-17 02:29N 51°30' W 002°43'0 0.0
2017-Oct-17 01:59N 51°30' W 002°43'0 0.0
2017-Oct-17 01:29N 51°30' W 002°43'0 0.0
2017-Oct-17 00:59N 51°30' W 002°43'0 0.0
2017-Oct-17 00:29N 51°30' W 002°43'0 0.0
2017-Oct-16 23:59N 51°30' W 002°43'0 0.0
2017-Oct-16 23:29N 51°30' W 002°43'0 0.0
2017-Oct-16 22:59N 51°30' W 002°43'0 0.0
2017-Oct-16 22:29N 51°30' W 002°43'0 0.0
2017-Oct-16 21:59N 51°30' W 002°43'0 0.0
2017-Oct-16 21:29N 51°30' W 002°43'0 0.0
2017-Oct-16 20:59N 51°30' W 002°43'0 0.0
2017-Oct-16 20:29N 51°30' W 002°43'0 0.0
2017-Oct-16 19:59N 51°30' W 002°43'0 0.0
2017-Oct-16 19:29N 51°30' W 002°43'0 0.0
2017-Oct-16 18:59N 51°30' W 002°43'0 0.0
2017-Oct-16 18:29N 51°30' W 002°43'0 0.0
2017-Oct-16 17:59N 51°30' W 002°43'0 0.0
2017-Oct-16 17:29N 51°30' W 002°43'0 0.0
2017-Oct-16 16:59N 51°30' W 002°43'0 0.0
2017-Oct-16 16:29N 51°30' W 002°43'0 0.0
2017-Oct-16 16:00N 51°30' W 002°43'0 0.2
2017-Oct-16 15:30N 51°30' W 002°43'0 0.3
2017-Oct-16 15:00N 51°30' W 002°44'5 4.9
2017-Oct-16 14:00N 51°28' W 002°51'918.2
2017-Oct-16 13:30N 51°24' W 003°04'816.0
2017-Oct-16 13:00N 51°21' W 003°16'4 7.6
2017-Oct-16 12:30N 51°21' W 003°22'7 5.6
2017-Oct-16 11:13N 51°22' W 003°33'1 7.1
2017-Oct-16 11:00N 51°22' W 003°36'4 7.1
2017-Oct-16 10:30N 51°22' W 003°41'4 9.0
2017-Oct-16 10:00N 51°22' W 003°48'5 9.1
2017-Oct-16 09:30N 51°22' W 003°56'5 9.8
2017-Oct-16 09:00N 51°23' W 004°04'5 9.3
2017-Oct-16 08:30N 51°23' W 004°11'5 9.5
2017-Oct-16 08:01N 51°23' W 004°18'715.0
2017-Oct-16 07:31N 51°24' W 004°30'815.4
2017-Oct-16 06:59N 51°24' W 004°43'715.5
2017-Oct-16 06:31N 51°25' W 004°55'815.2
2017-Oct-16 06:01N 51°25' W 005°07'815.6
2017-Oct-16 05:30N 51°25' W 005°20'815.2
2017-Oct-16 05:01N 51°26' W 005°32'815.6
2017-Oct-16 04:31N 51°31' W 005°42'816.3
2017-Oct-16 04:01N 51°36' W 005°52'714.5
2017-Oct-16 03:30N 51°43' W 005°58'816.8
2017-Oct-16 03:01N 51°51' W 005°54'917.1
2017-Oct-16 02:31N 51°59' W 005°49'917.5
2017-Oct-16 02:01N 52°07' W 005°44'918.2
2017-Oct-16 01:31N 52°15' W 005°39'918.8
2017-Oct-16 01:00N 52°24' W 005°33'1019.4
2017-Oct-16 00:30N 52°33' W 005°28'8116.8
2017-Oct-15 19:42N 53°34' W 003°59'317.5
2017-Oct-15 19:30N 53°34' W 003°53'917.4
2017-Oct-15 19:01N 53°34' W 003°39'917.1
2017-Oct-15 18:31N 53°33' W 003°25'612.4
2017-Oct-15 18:00N 53°31' W 003°14'612.0
2017-Oct-15 17:30N 53°29' W 003°05'3 6.1
2017-Oct-15 17:00N 53°27' W 003°01'0 0.0
2017-Oct-15 16:30N 53°27' W 003°01'0 0.0
2017-Oct-15 15:59N 53°27' W 003°01'0 0.0
2017-Oct-15 15:30N 53°27' W 003°01'0 0.0
2017-Oct-15 15:00N 53°27' W 003°01'0 0.0
2017-Oct-15 14:00N 53°27' W 003°01'0 0.1
2017-Oct-15 13:30N 53°27' W 003°01'0 0.0
2017-Oct-15 13:00N 53°27' W 003°01'0 0.0
2017-Oct-15 12:29N 53°27' W 003°01'0 0.0
2017-Oct-15 12:00N 53°27' W 003°01'0 0.0
2017-Oct-15 11:30N 53°27' W 003°01'0 0.0
2017-Oct-15 11:00N 53°27' W 003°01'0 0.0
2017-Oct-15 10:30N 53°27' W 003°01'0 0.0
2017-Oct-15 10:00N 53°27' W 003°01'0 0.0
2017-Oct-15 09:30N 53°27' W 003°01'0 0.0
2017-Oct-15 08:59N 53°27' W 003°01'0 0.0
2017-Oct-15 08:30N 53°27' W 003°01'0 0.0
2017-Oct-15 08:00N 53°27' W 003°01'0 0.0
2017-Oct-15 07:30N 53°27' W 003°01'0 0.0
2017-Oct-15 07:00N 53°27' W 003°01'0 0.0
2017-Oct-15 06:30N 53°27' W 003°01'0 0.0
2017-Oct-15 05:56N 53°27' W 003°01'0 0.0
2017-Oct-15 05:29N 53°27' W 003°01'0 0.0
2017-Oct-15 04:59N 53°27' W 003°01'0 0.0
2017-Oct-15 04:29N 53°27' W 003°01'0 0.0
2017-Oct-15 04:00N 53°27' W 003°01'0 0.0
2017-Oct-15 03:29N 53°27' W 003°01'0 0.0
2017-Oct-15 02:56N 53°27' W 003°01'0 0.0
2017-Oct-15 02:30N 53°27' W 003°01'0 0.0
2017-Oct-15 02:00N 53°27' W 003°01'0 0.1
2017-Oct-15 01:29N 53°27' W 003°01'0 0.1
2017-Oct-15 00:57N 53°27' W 003°01'0 0.0
2017-Oct-15 00:24N 53°27' W 003°01'0 0.0
2017-Oct-14 23:53N 53°27' W 003°01'0 0.0
2017-Oct-14 23:27N 53°27' W 003°01'0 0.0
2017-Oct-14 23:00N 53°27' W 003°01'0 0.0
2017-Oct-14 22:30N 53°27' W 003°01'0 0.0
2017-Oct-14 22:00N 53°27' W 003°01'0 0.0
2017-Oct-14 21:26N 53°27' W 003°01'0 0.0
2017-Oct-14 21:00N 53°27' W 003°01'0 0.1
2017-Oct-14 20:29N 53°27' W 003°01'0 0.0
2017-Oct-14 19:59N 53°27' W 003°01'0 0.0
2017-Oct-14 19:27N 53°27' W 003°01'0 0.0
2017-Oct-14 18:59N 53°27' W 003°01'0 0.0
2017-Oct-14 18:29N 53°27' W 003°01'0 0.0
2017-Oct-14 17:57N 53°27' W 003°01'0 0.1
2017-Oct-14 17:30N 53°27' W 003°01'0 0.1
2017-Oct-14 17:00N 53°27' W 003°01'0 0.0
2017-Oct-14 16:27N 53°27' W 003°01'0 0.0
2017-Oct-14 16:00N 53°27' W 003°01'0 0.0
2017-Oct-14 15:30N 53°27' W 003°01'0 0.0
2017-Oct-14 15:00N 53°27' W 003°01'0 0.0
2017-Oct-14 14:29N 53°27' W 003°01'0 0.0
2017-Oct-14 14:00N 53°27' W 003°01'0 0.0
2017-Oct-14 13:30N 53°27' W 003°01'0 0.0
2017-Oct-14 12:59N 53°27' W 003°01'0 0.0
2017-Oct-14 12:27N 53°27' W 003°01'0 0.0
2017-Oct-14 12:00N 53°27' W 003°01'0 0.0
2017-Oct-14 11:27N 53°27' W 003°01'0 0.0
2017-Oct-14 10:59N 53°27' W 003°01'0 0.0
2017-Oct-14 10:29N 53°27' W 003°01'0 0.0
2017-Oct-14 09:59N 53°27' W 003°01'0 0.0
2017-Oct-14 09:29N 53°27' W 003°01'0 0.0
2017-Oct-14 09:00N 53°27' W 003°01'0 0.0
2017-Oct-14 08:30N 53°27' W 003°01'0 0.0
2017-Oct-14 08:00N 53°27' W 003°01'0 0.0
2017-Oct-14 07:30N 53°27' W 003°01'0 0.0
2017-Oct-14 06:59N 53°27' W 003°01'0 0.0
2017-Oct-14 06:29N 53°27' W 003°01'0 0.0
2017-Oct-14 05:59N 53°27' W 003°01'0 0.0
2017-Oct-14 05:29N 53°27' W 003°01'0 0.0
2017-Oct-14 04:59N 53°27' W 003°01'0 0.0
2017-Oct-14 04:30N 53°27' W 003°01'0 0.0
2017-Oct-14 04:00N 53°27' W 003°01'1 1.4
2017-Oct-14 03:29N 53°27' W 003°02'4 8.0
2017-Oct-14 03:00N 53°30' W 003°06'5 9.1
2017-Oct-14 02:30N 53°31' W 003°14'4 7.6
2017-Oct-14 02:00N 53°31' W 003°20'3 6.7
2017-Oct-14 01:30N 53°31' W 003°26'611.6
2017-Oct-14 01:00N 53°31' W 003°35'611.4
2017-Oct-14 00:30N 53°31' W 003°45'611.1
2017-Oct-14 00:00N 53°31' W 003°54'510.8
2017-Oct-13 23:30N 53°30' W 004°03'612.9
2017-Oct-13 23:00N 53°30' W 004°14'11813.0
2017-Oct-13 13:56N 51°47' W 005°47'817.1
2017-Oct-13 13:29N 51°39' W 005°50'816.9
2017-Oct-13 13:00N 51°31' W 005°51'816.7
2017-Oct-13 12:30N 51°23' W 005°51'914.0
2017-Oct-13 11:52N 51°14' W 005°52'411.6
2017-Oct-13 11:30N 51°10' W 005°52'611.6
2017-Oct-13 11:00N 51°04' W 005°52'611.4
2017-Oct-13 10:30N 50°58' W 005°52'611.6
2017-Oct-13 10:00N 50°52' W 005°51'611.6
2017-Oct-13 09:30N 50°47' W 005°52'611.5
2017-Oct-13 09:00N 50°41' W 005°52'611.5
2017-Oct-13 08:30N 50°35' W 005°52'713.5
2017-Oct-13 08:01N 50°28' W 005°51'917.9
2017-Oct-13 07:30N 50°19' W 005°53'917.6
2017-Oct-13 07:01N 50°11' W 005°52'611.2
2017-Oct-13 06:30N 50°05' W 005°52'510.5
2017-Oct-13 06:00N 49°60' W 005°52'5 9.9
2017-Oct-13 05:29N 49°58' W 005°45'510.0
2017-Oct-13 05:00N 49°56' W 005°38'510.2
2017-Oct-13 04:30N 49°56' W 005°30'510.1
2017-Oct-13 03:59N 49°55' W 005°22'510.3
2017-Oct-13 03:29N 49°55' W 005°14'510.2
2017-Oct-13 03:00N 49°55' W 005°06'5 9.9
2017-Oct-13 02:30N 49°55' W 004°59'5 9.7
2017-Oct-13 02:00N 49°56' W 004°51'5 9.7
2017-Oct-13 01:30N 49°56' W 004°44'5 9.5
2017-Oct-13 01:00N 49°56' W 004°36'5 9.2
2017-Oct-13 00:30N 49°56' W 004°29'5 9.2
2017-Oct-13 00:00N 49°57' W 004°22'5 9.1
2017-Oct-12 23:30N 49°57' W 004°15'5 9.2
2017-Oct-12 23:00N 49°57' W 004°08'5 9.3
2017-Oct-12 22:30N 49°57' W 004°01'4 9.0
2017-Oct-12 22:00N 49°58' W 003°54'5 9.4
2017-Oct-12 21:30N 49°58' W 003°46'5 9.7
2017-Oct-12 21:00N 49°59' W 003°39'5 9.8
2017-Oct-12 20:30N 49°58' W 003°31'510.5
2017-Oct-12 20:00N 49°58' W 003°23'510.8
2017-Oct-12 19:30N 49°58' W 003°15'611.2
2017-Oct-12 19:00N 49°59' W 003°06'611.5
2017-Oct-12 18:30N 49°60' W 002°57'611.9
2017-Oct-12 18:00N 50°01' W 002°48'611.8
2017-Oct-12 17:30N 50°03' W 002°40'611.6
2017-Oct-12 16:59N 50°05' W 002°31'511.3
2017-Oct-12 16:30N 50°06' W 002°22'610.8
2017-Oct-12 15:59N 50°08' W 002°14'30 8.7
2017-Oct-12 12:32N 50°15' W 001°29'3 7.6
2017-Oct-12 12:09N 50°16' W 001°24'612.3
2017-Oct-12 11:42N 50°17' W 001°16'413.4
2017-Oct-12 11:26N 50°18' W 001°10'613.9
2017-Oct-12 11:00N 50°20' W 001°01'714.6
2017-Oct-12 10:30N 50°23' W 000°51'815.5
2017-Oct-12 10:00N 50°25' W 000°39'816.1
2017-Oct-12 09:30N 50°27' W 000°27'816.3
2017-Oct-12 09:00N 50°29' W 000°15'816.9
2017-Oct-12 08:30N 50°32' W 000°02'917.9
2017-Oct-12 08:00N 50°34' E 000°11'918.7
2017-Oct-12 07:30N 50°37' E 000°26'918.2
2017-Oct-12 07:00N 50°41' E 000°39'918.1
2017-Oct-12 06:30N 50°46' E 000°50'917.4
2017-Oct-12 06:00N 50°51' E 001°02'816.8
2017-Oct-12 05:30N 50°56' E 001°12'816.0
2017-Oct-12 05:00N 51°01' E 001°22'815.4
2017-Oct-12 04:30N 51°06' E 001°31'815.3
2017-Oct-12 04:00N 51°11' E 001°41'815.8
2017-Oct-12 03:31N 51°16' E 001°50'816.7
2017-Oct-12 03:00N 51°23' E 001°57'714.6
2017-Oct-12 02:31N 51°23' E 002°08'816.2
2017-Oct-12 02:01N 51°21' E 002°21'917.3
2017-Oct-12 01:30N 51°23' E 002°34'612.8
2017-Oct-12 01:00N 51°22' E 002°45'510.8
2017-Oct-12 00:30N 51°23' E 002°53'715.1
2017-Oct-12 00:00N 51°24' E 003°05'815.6
2017-Oct-11 23:30N 51°25' E 003°17'815.9
2017-Oct-11 23:00N 51°25' E 003°30'4 8.6
2017-Oct-11 22:30N 51°26' E 003°37'612.7
2017-Oct-11 22:01N 51°22' E 003°45'815.4
2017-Oct-11 21:31N 51°23' E 003°57'4 8.3
2017-Oct-11 21:00N 51°23' E 004°03'612.6
2017-Oct-11 20:31N 51°22' E 004°13'4 8.2
2017-Oct-11 20:00N 51°18' E 004°16'0 0.2
2017-Oct-11 19:30N 51°18' E 004°16'0 0.0
2017-Oct-11 19:00N 51°18' E 004°16'0 0.0
2017-Oct-11 18:30N 51°18' E 004°16'0 0.0
2017-Oct-11 18:00N 51°18' E 004°16'0 0.0
2017-Oct-11 17:30N 51°18' E 004°16'0 0.0
2017-Oct-11 17:00N 51°18' E 004°16'0 0.0
2017-Oct-11 00:00N 51°18' E 004°16'0 0.0
2017-Oct-10 23:30N 51°18' E 004°16'0 0.0
2017-Oct-10 23:00N 51°18' E 004°16'0 0.0
2017-Oct-10 22:30N 51°18' E 004°16'0 0.0
2017-Oct-10 21:57N 51°18' E 004°16'0 0.0
2017-Oct-10 21:27N 51°18' E 004°16'0 0.0
2017-Oct-10 21:00N 51°18' E 004°16'0 0.0
2017-Oct-10 20:30N 51°18' E 004°16'0 0.0
2017-Oct-10 20:00N 51°18' E 004°16'0 0.0
2017-Oct-10 19:30N 51°18' E 004°16'2 3.7
2017-Oct-10 19:00N 51°20' E 004°16'4 8.3
2017-Oct-10 18:30N 51°23' E 004°13'612.6
2017-Oct-10 18:00N 51°23' E 004°03'3 6.9
2017-Oct-10 17:30N 51°24' E 003°57'612.8
2017-Oct-10 17:00N 51°21' E 003°48'714.0
2017-Oct-10 16:30N 51°26' E 003°41'510.3
2017-Oct-10 16:00N 51°25' E 003°33'713.7
2017-Oct-10 15:30N 51°24' E 003°22'917.1
2017-Oct-10 15:00N 51°24' E 003°08'1515.1
2017-Oct-10 14:00N 51°23' E 002°44'5 9.3
2017-Oct-10 13:31N 51°22' E 002°37'3 6.0
2017-Oct-10 13:00N 51°25' E 002°36'0 0.3
2017-Oct-10 12:26N 51°25' E 002°37'0 0.1
2017-Oct-10 11:59N 51°25' E 002°37'0 0.1
2017-Oct-10 11:29N 51°25' E 002°37'0 0.0
2017-Oct-10 10:56N 51°25' E 002°37'0 0.0
2017-Oct-10 10:29N 51°25' E 002°37'0 0.1
2017-Oct-10 09:59N 51°25' E 002°37'0 0.2
2017-Oct-10 09:29N 51°25' E 002°37'0 0.2
2017-Oct-10 08:56N 51°25' E 002°37'0 0.1
2017-Oct-10 08:29N 51°25' E 002°37'0 0.0
2017-Oct-10 07:41N 51°25' E 002°37'0 0.0
2017-Oct-10 05:26N 51°25' E 002°37'0 0.0
2017-Oct-10 04:11N 51°25' E 002°37'0 0.0
2017-Oct-10 03:59N 51°25' E 002°37'0 0.0
2017-Oct-10 03:29N 51°25' E 002°37'0 0.0
2017-Oct-10 02:59N 51°25' E 002°37'0 0.1
2017-Oct-10 02:29N 51°25' E 002°37'0 0.1
2017-Oct-10 01:53N 51°25' E 002°37'0 0.1
2017-Oct-10 01:14N 51°25' E 002°37'0 0.3
2017-Oct-10 00:59N 51°25' E 002°37'0 0.2
2017-Oct-10 00:26N 51°25' E 002°37'0 0.0
2017-Oct-09 23:59N 51°25' E 002°37'0 0.0
2017-Oct-09 23:26N 51°25' E 002°36'0 0.0
2017-Oct-09 22:50N 51°25' E 002°36'0 0.0
2017-Oct-09 22:26N 51°25' E 002°36'0 0.1
2017-Oct-09 21:56N 51°25' E 002°37'0 0.2
2017-Oct-09 21:26N 51°25' E 002°37'0 0.3
2017-Oct-09 20:41N 51°26' E 002°37'0 0.1
2017-Oct-09 20:11N 51°26' E 002°37'0 0.0
2017-Oct-09 13:17N 51°25' E 002°37'0 1.2
2017-Oct-09 12:59N 51°25' E 002°36'3 6.8
2017-Oct-09 12:30N 51°22' E 002°34'6 9.1
2017-Oct-09 11:49N 51°21' E 002°25'5 8.3
2017-Oct-09 11:10N 51°18' E 002°17'3 7.9
2017-Oct-09 10:45N 51°16' E 002°13'2 7.7
2017-Oct-09 10:30N 51°15' E 002°11'4 7.5
2017-Oct-09 09:57N 51°13' E 002°05'3 7.4
2017-Oct-09 09:30N 51°12' E 002°00'4 7.4
2017-Oct-09 09:00N 51°10' E 001°55'4 7.9
2017-Oct-09 08:31N 51°08' E 001°49'714.4
2017-Oct-09 08:00N 51°04' E 001°40'917.6
2017-Oct-09 07:30N 50°58' E 001°31'917.9
2017-Oct-09 07:00N 50°49' E 001°25'917.8
2017-Oct-09 06:30N 50°41' E 001°20'50 9.7
2017-Oct-09 01:22N 50°19' E 000°09'510.3
2017-Oct-09 00:50N 50°17' E 000°01'410.9
2017-Oct-09 00:26N 50°15' W 000°05'511.0
2017-Oct-09 00:01N 50°13' W 000°11'510.1
2017-Oct-08 23:28N 50°07' W 000°11'910.2
2017-Oct-08 22:37N 49°59' W 000°11'110.2
2017-Oct-08 22:30N 49°57' W 000°11'510.0
2017-Oct-08 22:01N 49°52' W 000°11'5 9.6
2017-Oct-08 21:31N 49°48' W 000°11'4 8.8
2017-Oct-08 21:00N 49°43' W 000°09'4 8.7
2017-Oct-08 20:30N 49°39' W 000°07'4 8.7
2017-Oct-08 20:00N 49°35' W 000°04'5 9.0
2017-Oct-08 19:31N 49°32' W 000°00'611.6
2017-Oct-08 19:01N 49°28' E 000°07'2 3.3
2017-Oct-08 18:30N 49°28' E 000°09'0 0.0
2017-Oct-08 18:00N 49°28' E 000°09'0 0.0
2017-Oct-08 17:30N 49°28' E 000°09'0 0.0
2017-Oct-08 17:00N 49°28' E 000°09'0 0.0
2017-Oct-08 16:30N 49°28' E 000°09'0 0.0
2017-Oct-08 16:00N 49°28' E 000°09'0 0.0
2017-Oct-08 15:30N 49°28' E 000°09'0 0.0
2017-Oct-08 15:00N 49°28' E 000°09'0 0.0
2017-Oct-08 14:30N 49°28' E 000°09'0 0.0
2017-Oct-08 14:00N 49°28' E 000°09'0 0.0
2017-Oct-08 13:30N 49°28' E 000°09'0 0.0
2017-Oct-08 13:00N 49°28' E 000°09'0 0.0
2017-Oct-08 12:30N 49°28' E 000°09'0 0.0
2017-Oct-08 12:00N 49°28' E 000°09'0 0.0
2017-Oct-08 11:30N 49°28' E 000°09'0 0.0
2017-Oct-08 11:00N 49°28' E 000°09'0 0.0
2017-Oct-08 10:29N 49°28' E 000°09'0 0.0
2017-Oct-08 09:59N 49°28' E 000°09'0 0.0
2017-Oct-08 09:28N 49°28' E 000°09'0 0.0
2017-Oct-08 08:58N 49°28' E 000°09'0 0.0
2017-Oct-08 08:28N 49°28' E 000°09'0 0.0
2017-Oct-08 07:58N 49°28' E 000°09'0 0.0
2017-Oct-08 07:28N 49°28' E 000°09'0 0.0
2017-Oct-08 06:58N 49°28' E 000°09'0 0.0
2017-Oct-08 06:28N 49°28' E 000°09'0 0.0
2017-Oct-08 05:58N 49°28' E 000°09'0 0.0
2017-Oct-08 05:28N 49°28' E 000°09'0 0.0
2017-Oct-08 04:58N 49°28' E 000°09'0 0.0
2017-Oct-08 04:28N 49°28' E 000°09'0 0.0
2017-Oct-08 04:00N 49°28' E 000°09'0 0.2
2017-Oct-08 03:30N 49°28' E 000°09'3 5.6
2017-Oct-08 03:00N 49°29' E 000°05'713.5
2017-Oct-08 02:30N 49°31' W 000°05'3 6.4
2017-Oct-08 02:00N 49°32' W 000°09'4 7.7
2017-Oct-08 01:30N 49°33' W 000°15'5 9.4
2017-Oct-08 01:00N 49°34' W 000°22'510.3
2017-Oct-08 00:30N 49°37' W 000°29'  
Track history (hours):
 
Tides and Currents Weather Stations Pressure Air Temp Water Temp Dewpoint Dewpoint Depression Visibility Wind Speed Wind Dir Waves Ship Positions

MSC Suez

Last reported at 2017-Oct-17 20:29 UTC. Time now 2017-Oct-17 20:51 UTC.
Position N 51°30' W 002°43'.

Length 237 m; draft 8 m.

Type: Ship. MMSI: 355289000.

Date/timePositionNaut miles runAvg speedWind from/ knotsBaromVisibWave heightAir tempDewpointWater temp
2017-Oct-17 20:29N 51°30' W 002°43'0 0.0
2017-Oct-17 19:59N 51°30' W 002°43'0 0.0
2017-Oct-17 19:29N 51°30' W 002°43'0 0.0
2017-Oct-17 18:59N 51°30' W 002°43'0 0.0
2017-Oct-17 18:29N 51°30' W 002°43'0 0.0
2017-Oct-17 17:59N 51°30' W 002°43'0 0.0
2017-Oct-17 17:29N 51°30' W 002°43'0 0.0
2017-Oct-17 16:59N 51°30' W 002°43'0 0.0
2017-Oct-17 16:29N 51°30' W 002°43'0 0.0
2017-Oct-17 15:59N 51°30' W 002°43'0 0.0
2017-Oct-17 15:29N 51°30' W 002°43'0 0.0
2017-Oct-17 14:59N 51°30' W 002°43'0 0.0
2017-Oct-17 14:29N 51°30' W 002°43'0 0.0
2017-Oct-17 13:59N 51°30' W 002°43'0 0.0
2017-Oct-17 13:29N 51°30' W 002°43'0 0.0
2017-Oct-17 12:59N 51°30' W 002°43'0 0.0
2017-Oct-17 12:29N 51°30' W 002°43'0 0.0
2017-Oct-17 11:59N 51°30' W 002°43'0 0.0
2017-Oct-17 11:29N 51°30' W 002°43'0 0.0
2017-Oct-17 10:59N 51°30' W 002°43'0 0.0
2017-Oct-17 10:29N 51°30' W 002°43'0 0.0
2017-Oct-17 09:59N 51°30' W 002°43'0 0.0
2017-Oct-17 09:29N 51°30' W 002°43'0 0.0
2017-Oct-17 08:59N 51°30' W 002°43'0 0.0
2017-Oct-17 08:29N 51°30' W 002°43'0 0.0
2017-Oct-17 07:59N 51°30' W 002°43'0 0.0
2017-Oct-17 07:29N 51°30' W 002°43'0 0.0
2017-Oct-17 06:59N 51°30' W 002°43'0 0.0
2017-Oct-17 06:29N 51°30' W 002°43'0 0.0
2017-Oct-17 05:59N 51°30' W 002°43'0 0.0
2017-Oct-17 05:29N 51°30' W 002°43'0 0.0
2017-Oct-17 04:59N 51°30' W 002°43'0 0.0
2017-Oct-17 04:29N 51°30' W 002°43'0 0.0
2017-Oct-17 03:59N 51°30' W 002°43'0 0.0
2017-Oct-17 03:14N 51°30' W 002°43'0 0.0
2017-Oct-17 02:59N 51°30' W 002°43'0 0.0
2017-Oct-17 02:29N 51°30' W 002°43'0 0.0
2017-Oct-17 01:59N 51°30' W 002°43'0 0.0
2017-Oct-17 01:29N 51°30' W 002°43'0 0.0
2017-Oct-17 00:59N 51°30' W 002°43'0 0.0
2017-Oct-17 00:29N 51°30' W 002°43'0 0.0
2017-Oct-16 23:59N 51°30' W 002°43'0 0.0
2017-Oct-16 23:29N 51°30' W 002°43'0 0.0
2017-Oct-16 22:59N 51°30' W 002°43'0 0.0
2017-Oct-16 22:29N 51°30' W 002°43'0 0.0
2017-Oct-16 21:59N 51°30' W 002°43'0 0.0
2017-Oct-16 21:29N 51°30' W 002°43'0 0.0
2017-Oct-16 20:59N 51°30' W 002°43'0 0.0
2017-Oct-16 20:29N 51°30' W 002°43'0 0.0
2017-Oct-16 19:59N 51°30' W 002°43'0 0.0
2017-Oct-16 19:29N 51°30' W 002°43'0 0.0
2017-Oct-16 18:59N 51°30' W 002°43'0 0.0
2017-Oct-16 18:29N 51°30' W 002°43'0 0.0
2017-Oct-16 17:59N 51°30' W 002°43'0 0.0
2017-Oct-16 17:29N 51°30' W 002°43'0 0.0
2017-Oct-16 16:59N 51°30' W 002°43'0 0.0
2017-Oct-16 16:29N 51°30' W 002°43'0 0.0
2017-Oct-16 16:00N 51°30' W 002°43'0 0.2
2017-Oct-16 15:30N 51°30' W 002°43'0 0.3
2017-Oct-16 15:00N 51°30' W 002°44'5 4.9
2017-Oct-16 14:00N 51°28' W 002°51'918.2
2017-Oct-16 13:30N 51°24' W 003°04'816.0
2017-Oct-16 13:00N 51°21' W 003°16'4 7.6
2017-Oct-16 12:30N 51°21' W 003°22'7 5.6
2017-Oct-16 11:13N 51°22' W 003°33'1 7.1
2017-Oct-16 11:00N 51°22' W 003°36'4 7.1
2017-Oct-16 10:30N 51°22' W 003°41'4 9.0
2017-Oct-16 10:00N 51°22' W 003°48'5 9.1
2017-Oct-16 09:30N 51°22' W 003°56'5 9.8
2017-Oct-16 09:00N 51°23' W 004°04'5 9.3
2017-Oct-16 08:30N 51°23' W 004°11'5 9.5
2017-Oct-16 08:01N 51°23' W 004°18'715.0
2017-Oct-16 07:31N 51°24' W 004°30'815.4
2017-Oct-16 06:59N 51°24' W 004°43'715.5
2017-Oct-16 06:31N 51°25' W 004°55'815.2
2017-Oct-16 06:01N 51°25' W 005°07'815.6
2017-Oct-16 05:30N 51°25' W 005°20'815.2
2017-Oct-16 05:01N 51°26' W 005°32'815.6
2017-Oct-16 04:31N 51°31' W 005°42'816.3
2017-Oct-16 04:01N 51°36' W 005°52'714.5
2017-Oct-16 03:30N 51°43' W 005°58'816.8
2017-Oct-16 03:01N 51°51' W 005°54'917.1
2017-Oct-16 02:31N 51°59' W 005°49'917.5
2017-Oct-16 02:01N 52°07' W 005°44'918.2
2017-Oct-16 01:31N 52°15' W 005°39'918.8
2017-Oct-16 01:00N 52°24' W 005°33'1019.4
2017-Oct-16 00:30N 52°33' W 005°28'8116.8
2017-Oct-15 19:42N 53°34' W 003°59'317.5
2017-Oct-15 19:30N 53°34' W 003°53'917.4
2017-Oct-15 19:01N 53°34' W 003°39'917.1
2017-Oct-15 18:31N 53°33' W 003°25'612.4
2017-Oct-15 18:00N 53°31' W 003°14'612.0
2017-Oct-15 17:30N 53°29' W 003°05'3 6.1
2017-Oct-15 17:00N 53°27' W 003°01'0 0.0
2017-Oct-15 16:30N 53°27' W 003°01'0 0.0
2017-Oct-15 15:59N 53°27' W 003°01'0 0.0
2017-Oct-15 15:30N 53°27' W 003°01'0 0.0
2017-Oct-15 15:00N 53°27' W 003°01'0 0.0
2017-Oct-15 14:00N 53°27' W 003°01'0 0.1
2017-Oct-15 13:30N 53°27' W 003°01'0 0.0
2017-Oct-15 13:00N 53°27' W 003°01'0 0.0
2017-Oct-15 12:29N 53°27' W 003°01'0 0.0
2017-Oct-15 12:00N 53°27' W 003°01'0 0.0
2017-Oct-15 11:30N 53°27' W 003°01'0 0.0
2017-Oct-15 11:00N 53°27' W 003°01'0 0.0
2017-Oct-15 10:30N 53°27' W 003°01'0 0.0
2017-Oct-15 10:00N 53°27' W 003°01'0 0.0
2017-Oct-15 09:30N 53°27' W 003°01'0 0.0
2017-Oct-15 08:59N 53°27' W 003°01'0 0.0
2017-Oct-15 08:30N 53°27' W 003°01'0 0.0
2017-Oct-15 08:00N 53°27' W 003°01'0 0.0
2017-Oct-15 07:30N 53°27' W 003°01'0 0.0
2017-Oct-15 07:00N 53°27' W 003°01'0 0.0
2017-Oct-15 06:30N 53°27' W 003°01'0 0.0
2017-Oct-15 05:56N 53°27' W 003°01'0 0.0
2017-Oct-15 05:29N 53°27' W 003°01'0 0.0
2017-Oct-15 04:59N 53°27' W 003°01'0 0.0
2017-Oct-15 04:29N 53°27' W 003°01'0 0.0
2017-Oct-15 04:00N 53°27' W 003°01'0 0.0
2017-Oct-15 03:29N 53°27' W 003°01'0 0.0
2017-Oct-15 02:56N 53°27' W 003°01'0 0.0
2017-Oct-15 02:30N 53°27' W 003°01'0 0.0
2017-Oct-15 02:00N 53°27' W 003°01'0 0.1
2017-Oct-15 01:29N 53°27' W 003°01'0 0.1
2017-Oct-15 00:57N 53°27' W 003°01'0 0.0
2017-Oct-15 00:24N 53°27' W 003°01'0 0.0
2017-Oct-14 23:53N 53°27' W 003°01'0 0.0
2017-Oct-14 23:27N 53°27' W 003°01'0 0.0
2017-Oct-14 23:00N 53°27' W 003°01'0 0.0
2017-Oct-14 22:30N 53°27' W 003°01'0 0.0
2017-Oct-14 22:00N 53°27' W 003°01'0 0.0
2017-Oct-14 21:26N 53°27' W 003°01'0 0.0
2017-Oct-14 21:00N 53°27' W 003°01'0 0.1
2017-Oct-14 20:29N 53°27' W 003°01'0 0.0
2017-Oct-14 19:59N 53°27' W 003°01'0 0.0
2017-Oct-14 19:27N 53°27' W 003°01'0 0.0
2017-Oct-14 18:59N 53°27' W 003°01'0 0.0
2017-Oct-14 18:29N 53°27' W 003°01'0 0.0
2017-Oct-14 17:57N 53°27' W 003°01'0 0.1
2017-Oct-14 17:30N 53°27' W 003°01'0 0.1
2017-Oct-14 17:00N 53°27' W 003°01'0 0.0
2017-Oct-14 16:27N 53°27' W 003°01'0 0.0
2017-Oct-14 16:00N 53°27' W 003°01'0 0.0
2017-Oct-14 15:30N 53°27' W 003°01'0 0.0
2017-Oct-14 15:00N 53°27' W 003°01'0 0.0
2017-Oct-14 14:29N 53°27' W 003°01'0 0.0
2017-Oct-14 14:00N 53°27' W 003°01'0 0.0
2017-Oct-14 13:30N 53°27' W 003°01'0 0.0
2017-Oct-14 12:59N 53°27' W 003°01'0 0.0
2017-Oct-14 12:27N 53°27' W 003°01'0 0.0
2017-Oct-14 12:00N 53°27' W 003°01'0 0.0
2017-Oct-14 11:27N 53°27' W 003°01'0 0.0
2017-Oct-14 10:59N 53°27' W 003°01'0 0.0
2017-Oct-14 10:29N 53°27' W 003°01'0 0.0
2017-Oct-14 09:59N 53°27' W 003°01'0 0.0
2017-Oct-14 09:29N 53°27' W 003°01'0 0.0
2017-Oct-14 09:00N 53°27' W 003°01'0 0.0
2017-Oct-14 08:30N 53°27' W 003°01'0 0.0
2017-Oct-14 08:00N 53°27' W 003°01'0 0.0
2017-Oct-14 07:30N 53°27' W 003°01'0 0.0
2017-Oct-14 06:59N 53°27' W 003°01'0 0.0
2017-Oct-14 06:29N 53°27' W 003°01'0 0.0
2017-Oct-14 05:59N 53°27' W 003°01'0 0.0
2017-Oct-14 05:29N 53°27' W 003°01'0 0.0
2017-Oct-14 04:59N 53°27' W 003°01'0 0.0
2017-Oct-14 04:30N 53°27' W 003°01'0 0.0
2017-Oct-14 04:00N 53°27' W 003°01'1 1.4
2017-Oct-14 03:29N 53°27' W 003°02'4 8.0
2017-Oct-14 03:00N 53°30' W 003°06'5 9.1
2017-Oct-14 02:30N 53°31' W 003°14'4 7.6
2017-Oct-14 02:00N 53°31' W 003°20'3 6.7
2017-Oct-14 01:30N 53°31' W 003°26'611.6
2017-Oct-14 01:00N 53°31' W 003°35'611.4
2017-Oct-14 00:30N 53°31' W 003°45'611.1
2017-Oct-14 00:00N 53°31' W 003°54'510.8
2017-Oct-13 23:30N 53°30' W 004°03'612.9
2017-Oct-13 23:00N 53°30' W 004°14'11813.0
2017-Oct-13 13:56N 51°47' W 005°47'817.1
2017-Oct-13 13:29N 51°39' W 005°50'816.9
2017-Oct-13 13:00N 51°31' W 005°51'816.7
2017-Oct-13 12:30N 51°23' W 005°51'914.0
2017-Oct-13 11:52N 51°14' W 005°52'411.6
2017-Oct-13 11:30N 51°10' W 005°52'611.6
2017-Oct-13 11:00N 51°04' W 005°52'611.4
2017-Oct-13 10:30N 50°58' W 005°52'611.6
2017-Oct-13 10:00N 50°52' W 005°51'611.6
2017-Oct-13 09:30N 50°47' W 005°52'611.5
2017-Oct-13 09:00N 50°41' W 005°52'611.5
2017-Oct-13 08:30N 50°35' W 005°52'713.5
2017-Oct-13 08:01N 50°28' W 005°51'917.9
2017-Oct-13 07:30N 50°19' W 005°53'917.6
2017-Oct-13 07:01N 50°11' W 005°52'611.2
2017-Oct-13 06:30N 50°05' W 005°52'510.5
2017-Oct-13 06:00N 49°60' W 005°52'5 9.9
2017-Oct-13 05:29N 49°58' W 005°45'510.0
2017-Oct-13 05:00N 49°56' W 005°38'510.2
2017-Oct-13 04:30N 49°56' W 005°30'510.1
2017-Oct-13 03:59N 49°55' W 005°22'510.3
2017-Oct-13 03:29N 49°55' W 005°14'510.2
2017-Oct-13 03:00N 49°55' W 005°06'5 9.9
2017-Oct-13 02:30N 49°55' W 004°59'5 9.7
2017-Oct-13 02:00N 49°56' W 004°51'5 9.7
2017-Oct-13 01:30N 49°56' W 004°44'5 9.5
2017-Oct-13 01:00N 49°56' W 004°36'5 9.2
2017-Oct-13 00:30N 49°56' W 004°29'5 9.2
2017-Oct-13 00:00N 49°57' W 004°22'5 9.1
2017-Oct-12 23:30N 49°57' W 004°15'5 9.2
2017-Oct-12 23:00N 49°57' W 004°08'5 9.3
2017-Oct-12 22:30N 49°57' W 004°01'4 9.0
2017-Oct-12 22:00N 49°58' W 003°54'5 9.4
2017-Oct-12 21:30N 49°58' W 003°46'5 9.7
2017-Oct-12 21:00N 49°59' W 003°39'5 9.8
2017-Oct-12 20:30N 49°58' W 003°31'510.5
2017-Oct-12 20:00N 49°58' W 003°23'510.8
2017-Oct-12 19:30N 49°58' W 003°15'611.2
2017-Oct-12 19:00N 49°59' W 003°06'611.5
2017-Oct-12 18:30N 49°60' W 002°57'611.9
2017-Oct-12 18:00N 50°01' W 002°48'611.8
2017-Oct-12 17:30N 50°03' W 002°40'611.6
2017-Oct-12 16:59N 50°05' W 002°31'511.3
2017-Oct-12 16:30N 50°06' W 002°22'610.8
2017-Oct-12 15:59N 50°08' W 002°14'30 8.7
2017-Oct-12 12:32N 50°15' W 001°29'3 7.6
2017-Oct-12 12:09N 50°16' W 001°24'612.3
2017-Oct-12 11:42N 50°17' W 001°16'413.4
2017-Oct-12 11:26N 50°18' W 001°10'613.9
2017-Oct-12 11:00N 50°20' W 001°01'714.6
2017-Oct-12 10:30N 50°23' W 000°51'815.5
2017-Oct-12 10:00N 50°25' W 000°39'816.1
2017-Oct-12 09:30N 50°27' W 000°27'816.3
2017-Oct-12 09:00N 50°29' W 000°15'816.9
2017-Oct-12 08:30N 50°32' W 000°02'917.9
2017-Oct-12 08:00N 50°34' E 000°11'918.7
2017-Oct-12 07:30N 50°37' E 000°26'918.2
2017-Oct-12 07:00N 50°41' E 000°39'918.1
2017-Oct-12 06:30N 50°46' E 000°50'917.4
2017-Oct-12 06:00N 50°51' E 001°02'816.8
2017-Oct-12 05:30N 50°56' E 001°12'816.0
2017-Oct-12 05:00N 51°01' E 001°22'815.4
2017-Oct-12 04:30N 51°06' E 001°31'815.3
2017-Oct-12 04:00N 51°11' E 001°41'815.8
2017-Oct-12 03:31N 51°16' E 001°50'816.7
2017-Oct-12 03:00N 51°23' E 001°57'714.6
2017-Oct-12 02:31N 51°23' E 002°08'816.2
2017-Oct-12 02:01N 51°21' E 002°21'917.3
2017-Oct-12 01:30N 51°23' E 002°34'612.8
2017-Oct-12 01:00N 51°22' E 002°45'510.8
2017-Oct-12 00:30N 51°23' E 002°53'715.1
2017-Oct-12 00:00N 51°24' E 003°05'815.6
2017-Oct-11 23:30N 51°25' E 003°17'815.9
2017-Oct-11 23:00N 51°25' E 003°30'4 8.6
2017-Oct-11 22:30N 51°26' E 003°37'612.7
2017-Oct-11 22:01N 51°22' E 003°45'815.4
2017-Oct-11 21:31N 51°23' E 003°57'4 8.3
2017-Oct-11 21:00N 51°23' E 004°03'612.6
2017-Oct-11 20:31N 51°22' E 004°13'4 8.2
2017-Oct-11 20:00N 51°18' E 004°16'0 0.2
2017-Oct-11 19:30N 51°18' E 004°16'0 0.0
2017-Oct-11 19:00N 51°18' E 004°16'0 0.0
2017-Oct-11 18:30N 51°18' E 004°16'0 0.0
2017-Oct-11 18:00N 51°18' E 004°16'0 0.0
2017-Oct-11 17:30N 51°18' E 004°16'0 0.0
2017-Oct-11 17:00N 51°18' E 004°16'0 0.0
2017-Oct-11 00:00N 51°18' E 004°16'0 0.0
2017-Oct-10 23:30N 51°18' E 004°16'0 0.0
2017-Oct-10 23:00N 51°18' E 004°16'0 0.0
2017-Oct-10 22:30N 51°18' E 004°16'0 0.0
2017-Oct-10 21:57N 51°18' E 004°16'0 0.0
2017-Oct-10 21:27N 51°18' E 004°16'0 0.0
2017-Oct-10 21:00N 51°18' E 004°16'0 0.0
2017-Oct-10 20:30N 51°18' E 004°16'0 0.0
2017-Oct-10 20:00N 51°18' E 004°16'0 0.0
2017-Oct-10 19:30N 51°18' E 004°16'2 3.7
2017-Oct-10 19:00N 51°20' E 004°16'4 8.3
2017-Oct-10 18:30N 51°23' E 004°13'612.6
2017-Oct-10 18:00N 51°23' E 004°03'3 6.9
2017-Oct-10 17:30N 51°24' E 003°57'612.8
2017-Oct-10 17:00N 51°21' E 003°48'714.0
2017-Oct-10 16:30N 51°26' E 003°41'510.3
2017-Oct-10 16:00N 51°25' E 003°33'713.7
2017-Oct-10 15:30N 51°24' E 003°22'917.1
2017-Oct-10 15:00N 51°24' E 003°08'1515.1
2017-Oct-10 14:00N 51°23' E 002°44'5 9.3
2017-Oct-10 13:31N 51°22' E 002°37'3 6.0
2017-Oct-10 13:00N 51°25' E 002°36'0 0.3
2017-Oct-10 12:26N 51°25' E 002°37'0 0.1
2017-Oct-10 11:59N 51°25' E 002°37'0 0.1
2017-Oct-10 11:29N 51°25' E 002°37'0 0.0
2017-Oct-10 10:56N 51°25' E 002°37'0 0.0
2017-Oct-10 10:29N 51°25' E 002°37'0 0.1
2017-Oct-10 09:59N 51°25' E 002°37'0 0.2
2017-Oct-10 09:29N 51°25' E 002°37'0 0.2
2017-Oct-10 08:56N 51°25' E 002°37'0 0.1
2017-Oct-10 08:29N 51°25' E 002°37'0 0.0
2017-Oct-10 07:41N 51°25' E 002°37'0 0.0
2017-Oct-10 05:26N 51°25' E 002°37'0 0.0
2017-Oct-10 04:11N 51°25' E 002°37'0 0.0
2017-Oct-10 03:59N 51°25' E 002°37'0 0.0
2017-Oct-10 03:29N 51°25' E 002°37'0 0.0
2017-Oct-10 02:59N 51°25' E 002°37'0 0.1
2017-Oct-10 02:29N 51°25' E 002°37'0 0.1
2017-Oct-10 01:53N 51°25' E 002°37'0 0.1
2017-Oct-10 01:14N 51°25' E 002°37'0 0.3
2017-Oct-10 00:59N 51°25' E 002°37'0 0.2
2017-Oct-10 00:26N 51°25' E 002°37'0 0.0
2017-Oct-09 23:59N 51°25' E 002°37'0 0.0
2017-Oct-09 23:26N 51°25' E 002°36'0 0.0
2017-Oct-09 22:50N 51°25' E 002°36'0 0.0
2017-Oct-09 22:26N 51°25' E 002°36'0 0.1
2017-Oct-09 21:56N 51°25' E 002°37'0 0.2
2017-Oct-09 21:26N 51°25' E 002°37'0 0.3
2017-Oct-09 20:41N 51°26' E 002°37'0 0.1
2017-Oct-09 20:11N 51°26' E 002°37'0 0.0
2017-Oct-09 13:17N 51°25' E 002°37'0 1.2
2017-Oct-09 12:59N 51°25' E 002°36'3 6.8
2017-Oct-09 12:30N 51°22' E 002°34'6 9.1
2017-Oct-09 11:49N 51°21' E 002°25'5 8.3
2017-Oct-09 11:10N 51°18' E 002°17'3 7.9
2017-Oct-09 10:45N 51°16' E 002°13'2 7.7
2017-Oct-09 10:30N 51°15' E 002°11'4 7.5
2017-Oct-09 09:57N 51°13' E 002°05'3 7.4
2017-Oct-09 09:30N 51°12' E 002°00'4 7.4
2017-Oct-09 09:00N 51°10' E 001°55'4 7.9
2017-Oct-09 08:31N 51°08' E 001°49'714.4
2017-Oct-09 08:00N 51°04' E 001°40'917.6
2017-Oct-09 07:30N 50°58' E 001°31'917.9
2017-Oct-09 07:00N 50°49' E 001°25'917.8
2017-Oct-09 06:30N 50°41' E 001°20'50 9.7
2017-Oct-09 01:22N 50°19' E 000°09'510.3
2017-Oct-09 00:50N 50°17' E 000°01'410.9
2017-Oct-09 00:26N 50°15' W 000°05'511.0
2017-Oct-09 00:01N 50°13' W 000°11'510.1
2017-Oct-08 23:28N 50°07' W 000°11'910.2
2017-Oct-08 22:37N 49°59' W 000°11'110.2
2017-Oct-08 22:30N 49°57' W 000°11'510.0
2017-Oct-08 22:01N 49°52' W 000°11'5 9.6
2017-Oct-08 21:31N 49°48' W 000°11'4 8.8
2017-Oct-08 21:00N 49°43' W 000°09'4 8.7
2017-Oct-08 20:30N 49°39' W 000°07'4 8.7
2017-Oct-08 20:00N 49°35' W 000°04'5 9.0
2017-Oct-08 19:31N 49°32' W 000°00'611.6
2017-Oct-08 19:01N 49°28' E 000°07'2 3.3
2017-Oct-08 18:30N 49°28' E 000°09'0 0.0
2017-Oct-08 18:00N 49°28' E 000°09'0 0.0
2017-Oct-08 17:30N 49°28' E 000°09'0 0.0
2017-Oct-08 17:00N 49°28' E 000°09'0 0.0
2017-Oct-08 16:30N 49°28' E 000°09'0 0.0
2017-Oct-08 16:00N 49°28' E 000°09'0 0.0
2017-Oct-08 15:30N 49°28' E 000°09'0 0.0
2017-Oct-08 15:00N 49°28' E 000°09'0 0.0
2017-Oct-08 14:30N 49°28' E 000°09'0 0.0
2017-Oct-08 14:00N 49°28' E 000°09'0 0.0
2017-Oct-08 13:30N 49°28' E 000°09'0 0.0
2017-Oct-08 13:00N 49°28' E 000°09'0 0.0
2017-Oct-08 12:30N 49°28' E 000°09'0 0.0
2017-Oct-08 12:00N 49°28' E 000°09'0 0.0
2017-Oct-08 11:30N 49°28' E 000°09'0 0.0
2017-Oct-08 11:00N 49°28' E 000°09'0 0.0
2017-Oct-08 10:29N 49°28' E 000°09'0 0.0
2017-Oct-08 09:59N 49°28' E 000°09'0 0.0
2017-Oct-08 09:28N 49°28' E 000°09'0 0.0
2017-Oct-08 08:58N 49°28' E 000°09'0 0.0
2017-Oct-08 08:28N 49°28' E 000°09'0 0.0
2017-Oct-08 07:58N 49°28' E 000°09'0 0.0
2017-Oct-08 07:28N 49°28' E 000°09'0 0.0
2017-Oct-08 06:58N 49°28' E 000°09'0 0.0
2017-Oct-08 06:28N 49°28' E 000°09'0 0.0
2017-Oct-08 05:58N 49°28' E 000°09'0 0.0
2017-Oct-08 05:28N 49°28' E 000°09'0 0.0
2017-Oct-08 04:58N 49°28' E 000°09'0 0.0
2017-Oct-08 04:28N 49°28' E 000°09'0 0.0
2017-Oct-08 04:00N 49°28' E 000°09'0 0.2
2017-Oct-08 03:30N 49°28' E 000°09'3 5.6
2017-Oct-08 03:00N 49°29' E 000°05'713.5
2017-Oct-08 02:30N 49°31' W 000°05'3 6.4
2017-Oct-08 02:00N 49°32' W 000°09'4 7.7
2017-Oct-08 01:30N 49°33' W 000°15'5 9.4
2017-Oct-08 01:00N 49°34' W 000°22'510.3
2017-Oct-08 00:30N 49°37' W 000°29'  

Dump ship's entire track history